createdAt,value
2022-08-09T00:00:21.698Z,-40
2022-08-09T00:01:21.676Z,-40
2022-08-09T00:02:21.675Z,-40
2022-08-09T00:03:21.662Z,-40
2022-08-09T00:04:21.756Z,-40
2022-08-09T00:05:21.648Z,-40
2022-08-09T00:06:21.636Z,-40
2022-08-09T00:07:21.619Z,-40
2022-08-09T00:08:21.627Z,-40
2022-08-09T00:09:21.615Z,-40
2022-08-09T00:10:21.623Z,-40
2022-08-09T00:11:21.578Z,-40
2022-08-09T00:12:21.564Z,-40
2022-08-09T00:13:21.551Z,-40
2022-08-09T00:14:21.541Z,-40
2022-08-09T00:15:21.527Z,-40
2022-08-09T00:16:21.515Z,-40
2022-08-09T00:17:21.510Z,-40
2022-08-09T00:18:21.501Z,-40
2022-08-09T00:19:21.482Z,-40
2022-08-09T00:20:21.523Z,-40
2022-08-09T00:21:21.456Z,-40
2022-08-09T00:22:21.455Z,-40
2022-08-09T00:23:21.438Z,-40
2022-08-09T00:24:21.430Z,-40
2022-08-09T00:25:21.419Z,-40
2022-08-09T00:26:21.430Z,-40
2022-08-09T00:27:21.406Z,-40
2022-08-09T00:28:21.394Z,-40
2022-08-09T00:29:21.373Z,-40
2022-08-09T00:30:21.376Z,-40
2022-08-09T00:31:21.351Z,-40
2022-08-09T00:32:21.352Z,-40
2022-08-09T00:33:21.340Z,-40
2022-08-09T00:34:21.328Z,-40
2022-08-09T00:35:21.311Z,-40
2022-08-09T00:36:21.301Z,-40
2022-08-09T00:37:21.293Z,-40
2022-08-09T00:38:21.301Z,-40
2022-08-09T00:39:21.270Z,-40
2022-08-09T00:40:21.267Z,-40
2022-08-09T00:41:21.250Z,-40
2022-08-09T00:42:21.236Z,-40
2022-08-09T00:43:21.233Z,-40
2022-08-09T00:44:21.227Z,-40
2022-08-09T00:45:21.206Z,-40
2022-08-09T00:46:21.211Z,-40
2022-08-09T00:47:21.185Z,-40
2022-08-09T00:48:21.171Z,-40
2022-08-09T00:49:21.165Z,-40
2022-08-09T00:50:21.167Z,-40
2022-08-09T00:51:21.142Z,-40
2022-08-09T00:52:21.141Z,-40
2022-08-09T00:53:21.121Z,-40
2022-08-09T00:54:21.105Z,-40
2022-08-09T00:55:21.104Z,-40
2022-08-09T00:56:21.108Z,-40
2022-08-09T00:57:21.081Z,-40
2022-08-09T00:58:21.063Z,-40
2022-08-09T00:59:21.070Z,-40
2022-08-09T01:00:21.046Z,-40
2022-08-09T01:01:21.032Z,-40
2022-08-09T01:02:21.036Z,-40
2022-08-09T01:03:21.017Z,-40
2022-08-09T01:04:20.997Z,-40
2022-08-09T01:05:20.993Z,-40
2022-08-09T01:06:20.981Z,-40
2022-08-09T01:07:20.971Z,-40
2022-08-09T01:08:20.976Z,-40
2022-08-09T01:09:20.954Z,-40
2022-08-09T01:10:20.949Z,-40
2022-08-09T01:11:20.927Z,-40
2022-08-09T01:12:20.918Z,-40
2022-08-09T01:13:20.908Z,-40
2022-08-09T01:14:20.906Z,-40
2022-08-09T01:15:20.914Z,-40
2022-08-09T01:16:20.888Z,-40
2022-08-09T01:17:20.866Z,-40
2022-08-09T01:18:20.859Z,-40
2022-08-09T01:19:20.840Z,-40
2022-08-09T01:20:20.834Z,-40
2022-08-09T01:21:20.818Z,-40
2022-08-09T01:22:20.811Z,-40
2022-08-09T01:23:20.818Z,-40
2022-08-09T01:24:20.785Z,-40
2022-08-09T01:25:20.784Z,-40
2022-08-09T01:26:20.789Z,-40
2022-08-09T01:27:20.752Z,-40
2022-08-09T01:28:20.749Z,-40
2022-08-09T01:29:20.742Z,-40
2022-08-09T01:30:20.722Z,-40
2022-08-09T01:31:20.716Z,-40
2022-08-09T01:32:20.709Z,-40
2022-08-09T01:33:20.690Z,-40
2022-08-09T01:34:20.681Z,-40
2022-08-09T01:35:20.669Z,-40
2022-08-09T01:36:20.660Z,-40
2022-08-09T01:37:20.649Z,-40
2022-08-09T01:38:20.649Z,-40
2022-08-09T01:39:20.629Z,-40
2022-08-09T01:40:20.616Z,-40
2022-08-09T01:41:20.604Z,-40
2022-08-09T01:42:20.596Z,-40
2022-08-09T01:43:20.590Z,-40
2022-08-09T01:44:20.582Z,-40
2022-08-09T01:45:20.567Z,-40
2022-08-09T01:46:20.557Z,-40
2022-08-09T01:47:20.557Z,-40
2022-08-09T01:48:20.529Z,-40
2022-08-09T01:49:20.546Z,-40
2022-08-09T01:50:20.508Z,-40
2022-08-09T01:51:20.505Z,-40
2022-08-09T01:52:20.538Z,-40
2022-08-09T01:53:20.537Z,-40
2022-08-09T01:54:20.487Z,-40
2022-08-09T01:55:28.090Z,-40
2022-08-09T01:56:20.443Z,-40
2022-08-09T01:57:20.441Z,-40
2022-08-09T01:58:20.428Z,-40
2022-08-09T01:59:20.413Z,-40
2022-08-09T02:00:20.412Z,-40
2022-08-09T02:01:20.390Z,-40
2022-08-09T02:02:20.380Z,-40
2022-08-09T02:03:20.373Z,-40
2022-08-09T02:04:20.361Z,-40
2022-08-09T02:05:20.366Z,-40
2022-08-09T02:06:20.346Z,-40
2022-08-09T02:07:20.346Z,-40
2022-08-09T02:08:20.329Z,-40
2022-08-09T02:09:20.306Z,-40
2022-08-09T02:10:20.323Z,-40
2022-08-09T02:11:20.307Z,-40
2022-08-09T02:12:20.280Z,-40
2022-08-09T02:13:20.269Z,-40
2022-08-09T02:14:20.254Z,-40
2022-08-09T02:15:20.242Z,-40
2022-08-09T02:16:20.268Z,-40
2022-08-09T02:17:20.225Z,-40
2022-08-09T02:18:20.211Z,-40
2022-08-09T02:19:20.197Z,-40
2022-08-09T02:20:20.194Z,-40
2022-08-09T02:21:20.183Z,-40
2022-08-09T02:22:20.193Z,-40
2022-08-09T02:23:20.164Z,-40
2022-08-09T02:24:20.163Z,-40
2022-08-09T02:25:20.132Z,-40
2022-08-09T02:26:20.124Z,-40
2022-08-09T02:27:20.130Z,-40
2022-08-09T02:28:20.106Z,-40
2022-08-09T02:29:20.091Z,-40
2022-08-09T02:30:20.089Z,-40
2022-08-09T02:31:20.074Z,-40
2022-08-09T02:32:20.061Z,-40
2022-08-09T02:33:20.061Z,-40
2022-08-09T02:34:20.041Z,-40
2022-08-09T02:35:20.029Z,-40
2022-08-09T02:36:20.015Z,-40
2022-08-09T02:37:20.015Z,-40
2022-08-09T02:38:19.997Z,-40
2022-08-09T02:39:19.994Z,-40
2022-08-09T02:40:19.976Z,-40
2022-08-09T02:41:19.983Z,-40
2022-08-09T02:42:19.952Z,-40
2022-08-09T02:43:19.949Z,-40
2022-08-09T02:44:19.941Z,-40
2022-08-09T02:45:19.921Z,-40
2022-08-09T02:46:19.918Z,-40
2022-08-09T02:47:19.904Z,-40
2022-08-09T02:48:19.885Z,-40
2022-08-09T02:49:19.877Z,-40
2022-08-09T02:50:19.874Z,-40
2022-08-09T02:51:19.862Z,-40
2022-08-09T02:52:19.850Z,-40
2022-08-09T02:53:19.835Z,-40
2022-08-09T02:54:19.827Z,-40
2022-08-09T02:55:19.810Z,-40
2022-08-09T02:56:19.820Z,-40
2022-08-09T02:57:19.802Z,-40
2022-08-09T02:58:19.786Z,-40
2022-08-09T02:59:19.768Z,-40
2022-08-09T03:00:19.761Z,-40
2022-08-09T03:01:19.751Z,-40
2022-08-09T03:02:19.737Z,-40
2022-08-09T03:03:19.736Z,-40
2022-08-09T03:04:19.724Z,-40
2022-08-09T03:05:19.718Z,-40
2022-08-09T03:06:19.698Z,-40
2022-08-09T03:07:19.700Z,-40
2022-08-09T03:08:19.674Z,-40
2022-08-09T03:09:19.669Z,-40
2022-08-09T03:10:19.690Z,-40
2022-08-09T03:11:19.647Z,-40
2022-08-09T03:12:19.638Z,-40
2022-08-09T03:13:19.650Z,-40
2022-08-09T03:14:19.630Z,-40
2022-08-09T03:15:19.602Z,-40
2022-08-09T03:16:19.608Z,-40
2022-08-09T03:17:19.581Z,-40
2022-08-09T03:18:19.569Z,-40
2022-08-09T03:19:19.574Z,-40
2022-08-09T03:20:19.544Z,-40
2022-08-09T03:21:19.540Z,-40
2022-08-09T03:22:19.545Z,-40
2022-08-09T03:23:19.509Z,-40
2022-08-09T03:24:19.508Z,-40
2022-08-09T03:25:19.492Z,-40
2022-08-09T03:26:19.482Z,-40
2022-08-09T03:27:19.497Z,-40
2022-08-09T03:28:19.459Z,-40
2022-08-09T03:29:19.446Z,-40
2022-08-09T03:30:19.449Z,-40
2022-08-09T03:31:19.459Z,-40
2022-08-09T03:32:19.436Z,-40
2022-08-09T03:33:19.457Z,-40
2022-08-09T03:34:26.964Z,-40
2022-08-09T03:35:26.961Z,-40
2022-08-09T03:36:26.954Z,-40
2022-08-09T03:37:19.362Z,-40
2022-08-09T03:38:27.926Z,-40
2022-08-09T03:39:26.932Z,-40
2022-08-09T03:40:26.902Z,-40
2022-08-09T03:41:19.320Z,-40
2022-08-09T03:42:26.875Z,-40
2022-08-09T03:43:26.869Z,-40
2022-08-09T03:44:19.290Z,-40
2022-08-09T03:45:19.272Z,-40
2022-08-09T03:46:26.839Z,-40
2022-08-09T03:47:26.809Z,-40
2022-08-09T03:48:26.819Z,-40
2022-08-09T03:49:19.233Z,-40
2022-08-09T03:50:19.229Z,-40
2022-08-09T03:51:26.777Z,-40
2022-08-09T03:52:28.627Z,-40
2022-08-09T03:53:26.773Z,-40
2022-08-09T03:54:19.183Z,-40
2022-08-09T03:55:26.734Z,-40
2022-08-09T03:56:19.160Z,-40
2022-08-09T03:57:26.710Z,-40
2022-08-09T03:58:26.719Z,-40
2022-08-09T03:59:26.693Z,-40
2022-08-09T04:00:19.115Z,-40
2022-08-09T04:01:27.691Z,-40
2022-08-09T04:02:26.670Z,-40
2022-08-09T04:03:26.656Z,-40
2022-08-09T04:04:19.074Z,-40
2022-08-09T04:05:19.078Z,-40
2022-08-09T04:06:26.624Z,-40
2022-08-09T04:07:27.644Z,-40
2022-08-09T04:08:26.607Z,-40
2022-08-09T04:09:19.044Z,-40
2022-08-09T04:10:26.597Z,-40
2022-08-09T04:11:26.566Z,-40
2022-08-09T04:12:27.581Z,-40
2022-08-09T04:13:27.575Z,-40
2022-08-09T04:14:26.545Z,-40
2022-08-09T04:15:26.696Z,-40
2022-08-09T04:16:26.504Z,-40
2022-08-09T04:17:26.500Z,-40
2022-08-09T04:18:18.936Z,-40
2022-08-09T04:19:26.500Z,-40
2022-08-09T04:20:18.912Z,-40
2022-08-09T04:21:18.890Z,-40
2022-08-09T04:22:18.885Z,-40
2022-08-09T04:23:18.871Z,-40
2022-08-09T04:24:18.859Z,-40
2022-08-09T04:25:27.442Z,-40
2022-08-09T04:26:18.854Z,-40
2022-08-09T04:27:18.863Z,-40
2022-08-09T04:29:35.124Z,21.41
2022-08-09T04:30:35.125Z,22.02
2022-08-09T04:31:35.106Z,22.6
2022-08-09T04:32:35.085Z,22.67
2022-08-09T04:33:35.079Z,22.57
2022-08-09T04:34:35.079Z,22.72
2022-08-09T04:35:43.626Z,23.01
2022-08-09T04:36:35.039Z,22.78
2022-08-09T04:37:35.034Z,22.84
2022-08-09T04:38:35.024Z,23.17
2022-08-09T04:39:35.006Z,23.24
2022-08-09T04:40:35.014Z,23.31
2022-08-09T04:41:34.982Z,23.23
2022-08-09T04:42:34.974Z,23.62
2022-08-09T04:43:34.967Z,24.01
2022-08-09T04:44:34.947Z,24.2
2022-08-09T04:45:34.952Z,24.56
2022-08-09T04:46:34.933Z,24.67
2022-08-09T04:47:34.953Z,24.91
2022-08-09T04:48:42.497Z,25.61
2022-08-09T04:49:34.906Z,25.37
2022-08-09T04:50:34.896Z,25.39
2022-08-09T04:51:34.878Z,25.56
2022-08-09T04:52:34.863Z,25.53
2022-08-09T04:53:34.857Z,25.74
2022-08-09T04:54:34.848Z,25.74
2022-08-09T04:55:34.856Z,25.62
2022-08-09T04:56:34.826Z,25.61
2022-08-09T04:57:34.812Z,25.19
2022-08-09T04:58:34.803Z,24.94
2022-08-09T04:59:34.807Z,24.97
2022-08-09T05:00:34.805Z,25.01
2022-08-09T05:01:34.782Z,25.13
2022-08-09T05:02:34.760Z,25.24
2022-08-09T05:03:34.769Z,25.34
2022-08-09T05:04:34.758Z,25.19
2022-08-09T05:05:34.737Z,24.88
2022-08-09T05:06:34.731Z,24.9
2022-08-09T05:07:35.251Z,24.98
2022-08-09T05:08:34.692Z,25
2022-08-09T05:09:34.761Z,25.01
2022-08-09T05:10:34.691Z,25.2
2022-08-09T05:11:34.717Z,25.32
2022-08-09T05:12:34.657Z,25.38
2022-08-09T05:13:34.644Z,25.49
2022-08-09T05:14:34.713Z,25.52
2022-08-09T05:15:34.729Z,25.64
2022-08-09T05:16:34.605Z,25.53
2022-08-09T05:17:34.596Z,25.54
2022-08-09T05:18:34.583Z,25.39
2022-08-09T05:19:34.574Z,25.37
2022-08-09T05:20:34.563Z,25.22
2022-08-09T05:21:34.569Z,25.06
2022-08-09T05:22:34.550Z,25.01
2022-08-09T05:23:34.543Z,25.17
2022-08-09T05:24:34.527Z,25.27
2022-08-09T05:25:34.524Z,25.1
2022-08-09T05:26:34.494Z,25.1
2022-08-09T05:27:34.489Z,24.92
2022-08-09T05:28:34.483Z,25.17
2022-08-09T05:29:34.479Z,24.97
2022-08-09T05:30:34.455Z,24.92
2022-08-09T05:31:34.443Z,25.01
2022-08-09T05:32:34.448Z,24.83
2022-08-09T05:33:34.421Z,24.38
2022-08-09T05:34:34.412Z,23.98
2022-08-09T05:35:34.405Z,24.12
2022-08-09T05:36:34.390Z,24.32
2022-08-09T05:37:34.405Z,24.02
2022-08-09T05:38:34.377Z,23.92
2022-08-09T05:39:34.368Z,24
2022-08-09T05:40:34.362Z,23.86
2022-08-09T05:41:34.361Z,23.94
2022-08-09T05:42:34.329Z,23.98
2022-08-09T05:43:34.317Z,24.17
2022-08-09T05:44:34.313Z,24.24
2022-08-09T05:45:34.295Z,24.2
2022-08-09T05:46:34.290Z,24.59
2022-08-09T05:47:34.281Z,24.68
2022-08-09T05:48:34.267Z,24.75
2022-08-09T05:49:34.255Z,24.83
2022-08-09T05:50:34.236Z,24.85
2022-08-09T05:51:34.238Z,24.69
2022-08-09T05:52:34.218Z,24.75
2022-08-09T05:53:34.217Z,24.76
2022-08-09T05:54:34.200Z,24.92
2022-08-09T05:55:34.186Z,25.09
2022-08-09T05:56:34.175Z,24.92
2022-08-09T05:57:34.166Z,24.69
2022-08-09T05:58:34.165Z,24.95
2022-08-09T05:59:34.160Z,25.02
2022-08-09T06:00:34.138Z,25.17
2022-08-09T06:01:34.126Z,25.37
2022-08-09T06:02:34.139Z,25.5
2022-08-09T06:03:34.270Z,25.74
2022-08-09T06:04:34.094Z,25.84
2022-08-09T06:05:34.093Z,25.72
2022-08-09T06:06:34.089Z,25.8
2022-08-09T06:07:34.079Z,25.56
2022-08-09T06:08:34.075Z,24.83
2022-08-09T06:09:34.048Z,24.32
2022-08-09T06:10:34.034Z,24.2
2022-08-09T06:11:34.019Z,24.35
2022-08-09T06:12:34.004Z,24.95
2022-08-09T06:13:34.006Z,25.46
2022-08-09T06:14:33.984Z,25.32
2022-08-09T06:15:33.971Z,25.53
2022-08-09T06:16:33.977Z,25.02
2022-08-09T06:17:33.965Z,24.57
2022-08-09T06:18:33.940Z,24.19
2022-08-09T06:19:33.925Z,24.63
2022-08-09T06:20:33.917Z,25.12
2022-08-09T06:21:33.910Z,25.38
2022-08-09T06:22:33.900Z,25.65
2022-08-09T06:23:33.888Z,25.84
2022-08-09T06:24:33.876Z,25.98
2022-08-09T06:25:33.860Z,26.12
2022-08-09T06:26:33.884Z,26.11
2022-08-09T06:27:33.848Z,26.39
2022-08-09T06:28:33.846Z,26.39
2022-08-09T06:29:33.821Z,26.18
2022-08-09T06:30:33.812Z,26.09
2022-08-09T06:31:33.796Z,25.28
2022-08-09T06:32:33.789Z,25.57
2022-08-09T06:33:33.777Z,25.97
2022-08-09T06:34:33.772Z,26.18
2022-08-09T06:35:33.767Z,26.02
2022-08-09T06:36:33.745Z,24.98
2022-08-09T06:37:33.732Z,24.49
2022-08-09T06:38:33.720Z,24.5
2022-08-09T06:39:33.711Z,24.77
2022-08-09T06:40:33.702Z,24.64
2022-08-09T06:41:33.696Z,24.12
2022-08-09T06:42:33.681Z,24.19
2022-08-09T06:43:33.668Z,24.5
2022-08-09T06:44:33.660Z,24.61
2022-08-09T06:45:33.661Z,24.27
2022-08-09T06:46:33.636Z,24.29
2022-08-09T06:47:33.625Z,24.2
2022-08-09T06:48:33.619Z,24.31
2022-08-09T06:49:33.605Z,24.23
2022-08-09T06:50:33.676Z,24.12
2022-08-09T06:51:33.581Z,24.17
2022-08-09T06:52:33.569Z,23.89
2022-08-09T06:53:33.564Z,23.9
2022-08-09T06:54:33.557Z,24.1
2022-08-09T06:55:33.540Z,23.95
2022-08-09T06:56:33.528Z,24.34
2022-08-09T06:57:33.520Z,24.76
2022-08-09T06:58:33.505Z,24.87
2022-08-09T06:59:33.501Z,24.68
2022-08-09T07:00:33.490Z,25.07
2022-08-09T07:01:33.513Z,24.9
2022-08-09T07:02:33.473Z,24.63
2022-08-09T07:03:33.454Z,24.83
2022-08-09T07:04:33.452Z,25.2
2022-08-09T07:05:33.435Z,25.5
2022-08-09T07:06:33.423Z,25.74
2022-08-09T07:07:33.436Z,25.99
2022-08-09T07:08:33.412Z,25.91
2022-08-09T07:09:33.420Z,26.55
2022-08-09T07:10:33.383Z,27.17
2022-08-09T07:11:33.387Z,27.58
2022-08-09T07:12:33.366Z,27.24
2022-08-09T07:13:33.357Z,27.23
2022-08-09T07:14:33.334Z,27.41
2022-08-09T07:15:33.322Z,27.14
2022-08-09T07:16:33.318Z,26.81
2022-08-09T07:17:33.304Z,27.31
2022-08-09T07:18:33.292Z,27.89
2022-08-09T07:19:33.284Z,27.61
2022-08-09T07:20:33.273Z,27.8
2022-08-09T07:21:33.262Z,28.22
2022-08-09T07:22:33.262Z,27.99
2022-08-09T07:23:33.249Z,27.59
2022-08-09T07:24:33.258Z,28.1
2022-08-09T07:25:33.752Z,28.8
2022-08-09T07:26:33.210Z,29.08
2022-08-09T07:27:33.228Z,29.41
2022-08-09T07:28:33.208Z,29.82
2022-08-09T07:29:33.214Z,30.38
2022-08-09T07:30:33.163Z,30.43
2022-08-09T07:31:33.149Z,30.65
2022-08-09T07:32:33.155Z,30.78
2022-08-09T07:33:33.135Z,30.78
2022-08-09T07:34:33.137Z,31.06
2022-08-09T07:35:33.111Z,31.05
2022-08-09T07:36:33.104Z,30.9
2022-08-09T07:37:33.090Z,30.29
2022-08-09T07:38:33.080Z,28.87
2022-08-09T07:39:33.069Z,28.53
2022-08-09T07:40:33.055Z,28.8
2022-08-09T07:41:33.045Z,29.31
2022-08-09T07:42:33.041Z,29.93
2022-08-09T07:43:33.029Z,30.27
2022-08-09T07:44:33.015Z,30.29
2022-08-09T07:45:33.006Z,30.18
2022-08-09T07:46:33.038Z,29.31
2022-08-09T07:47:32.985Z,28.96
2022-08-09T07:48:32.976Z,28.96
2022-08-09T07:49:32.960Z,29.45
2022-08-09T07:50:32.949Z,29.15
2022-08-09T07:51:32.939Z,29.37
2022-08-09T07:52:32.972Z,29.35
2022-08-09T07:53:32.921Z,29.99
2022-08-09T07:54:32.918Z,29.94
2022-08-09T07:55:32.898Z,30.26
2022-08-09T07:56:32.895Z,30.67
2022-08-09T07:57:32.894Z,31.3
2022-08-09T07:58:32.865Z,32.06
2022-08-09T07:59:32.852Z,32.7
2022-08-09T08:00:32.837Z,32.54
2022-08-09T08:01:32.838Z,32.39
2022-08-09T08:02:32.825Z,32.74
2022-08-09T08:03:32.814Z,33.29
2022-08-09T08:04:32.865Z,33.65
2022-08-09T08:05:32.793Z,34.17
2022-08-09T08:06:32.772Z,34.54
2022-08-09T08:07:32.764Z,33.65
2022-08-09T08:08:32.769Z,32.76
2022-08-09T08:09:32.743Z,32.05
2022-08-09T08:10:32.732Z,31.76
2022-08-09T08:11:32.731Z,31.28
2022-08-09T08:12:32.768Z,32.36
2022-08-09T08:13:32.708Z,32.84
2022-08-09T08:14:32.695Z,31.06
2022-08-09T08:15:32.683Z,30.43
2022-08-09T08:16:32.676Z,30.52
2022-08-09T08:17:32.664Z,30.81
2022-08-09T08:18:32.657Z,31.72
2022-08-09T08:19:32.658Z,31.53
2022-08-09T08:20:32.668Z,31.87
2022-08-09T08:21:32.615Z,32.98
2022-08-09T08:22:32.641Z,33.42
2022-08-09T08:23:32.664Z,33.95
2022-08-09T08:24:32.587Z,34.08
2022-08-09T08:25:32.580Z,32.81
2022-08-09T08:26:32.559Z,32.07
2022-08-09T08:27:32.547Z,31.6
2022-08-09T08:28:32.538Z,31.88
2022-08-09T08:29:32.528Z,31.96
2022-08-09T08:30:32.520Z,31.53
2022-08-09T08:31:32.509Z,31.39
2022-08-09T08:32:32.495Z,31.7
2022-08-09T08:33:32.485Z,32.06
2022-08-09T08:34:32.473Z,32.48
2022-08-09T08:35:32.469Z,32.66
2022-08-09T08:36:32.463Z,32.4
2022-08-09T08:37:32.460Z,32.36
2022-08-09T08:38:32.445Z,32.32
2022-08-09T08:39:32.435Z,32.96
2022-08-09T08:40:32.463Z,33.49
2022-08-09T08:41:32.406Z,32.57
2022-08-09T08:42:32.392Z,32.4
2022-08-09T08:43:32.383Z,33.42
2022-08-09T08:44:32.380Z,33.67
2022-08-09T08:45:32.367Z,33.63
2022-08-09T08:46:32.355Z,34.2
2022-08-09T08:47:32.343Z,35.52
2022-08-09T08:48:32.324Z,35.35
2022-08-09T08:49:32.320Z,35.77
2022-08-09T08:50:32.309Z,35.84
2022-08-09T08:51:32.297Z,35.99
2022-08-09T08:52:32.297Z,36.08
2022-08-09T08:53:32.271Z,35.72
2022-08-09T08:54:32.281Z,34.73
2022-08-09T08:55:32.247Z,33.76
2022-08-09T08:56:32.263Z,34.89
2022-08-09T08:57:32.240Z,34.79
2022-08-09T08:58:32.220Z,33.95
2022-08-09T08:59:32.210Z,33.7
2022-08-09T09:00:32.239Z,33.7
2022-08-09T09:01:32.187Z,34.6
2022-08-09T09:02:32.173Z,35.21
2022-08-09T09:03:32.165Z,35.82
2022-08-09T09:04:32.171Z,35.47
2022-08-09T09:05:32.146Z,34.81
2022-08-09T09:06:32.141Z,34.96
2022-08-09T09:07:32.121Z,35.15
2022-08-09T09:08:32.118Z,35.57
2022-08-09T09:09:32.109Z,35.66
2022-08-09T09:10:32.095Z,35.2
2022-08-09T09:11:32.143Z,35.02
2022-08-09T09:12:32.107Z,35.01
2022-08-09T09:13:32.060Z,36.03
2022-08-09T09:14:32.045Z,37.01
2022-08-09T09:15:32.704Z,37.47
2022-08-09T09:16:32.029Z,37.5
2022-08-09T09:17:32.018Z,37.62
2022-08-09T09:18:32.011Z,36.72
2022-08-09T09:19:32.045Z,35.99
2022-08-09T09:20:31.991Z,36.52
2022-08-09T09:21:31.973Z,37.66
2022-08-09T09:22:31.970Z,38.57
2022-08-09T09:23:31.963Z,38.38
2022-08-09T09:24:31.950Z,38.2
2022-08-09T09:25:31.933Z,36.9
2022-08-09T09:26:31.936Z,37.26
2022-08-09T09:27:31.924Z,36.79
2022-08-09T09:28:31.904Z,36.9
2022-08-09T09:29:31.909Z,35.86
2022-08-09T09:30:31.878Z,35.32
2022-08-09T09:31:31.867Z,35.69
2022-08-09T09:32:31.883Z,36.54
2022-08-09T09:33:31.857Z,37.07
2022-08-09T09:34:31.838Z,37.32
2022-08-09T09:35:31.825Z,37.21
2022-08-09T09:36:31.819Z,37.07
2022-08-09T09:37:31.809Z,37.99
2022-08-09T09:38:31.813Z,38.26
2022-08-09T09:39:31.815Z,37.99
2022-08-09T09:40:31.841Z,38.07
2022-08-09T09:41:31.762Z,38.29
2022-08-09T09:42:31.753Z,38.41
2022-08-09T09:43:31.744Z,39.03
2022-08-09T09:44:31.749Z,38.89
2022-08-09T09:45:31.729Z,38.41
2022-08-09T09:46:31.711Z,36.83
2022-08-09T09:47:31.708Z,37.5
2022-08-09T09:48:31.715Z,37.8
2022-08-09T09:49:31.687Z,36.95
2022-08-09T09:50:31.698Z,37.73
2022-08-09T09:51:31.710Z,38.64
2022-08-09T09:52:31.654Z,39.36
2022-08-09T09:53:31.659Z,39.9
2022-08-09T09:54:31.628Z,40.65
2022-08-09T09:55:31.622Z,41.17
2022-08-09T09:56:31.623Z,40.34
2022-08-09T09:57:31.601Z,39.8
2022-08-09T09:58:31.591Z,40.08
2022-08-09T09:59:31.593Z,40.08
2022-08-09T10:00:31.568Z,39.89
2022-08-09T10:01:31.562Z,40.14
2022-08-09T10:02:31.545Z,38.58
2022-08-09T10:03:31.536Z,37.47
2022-08-09T10:04:31.640Z,37.85
2022-08-09T10:05:31.515Z,37.07
2022-08-09T10:06:31.505Z,36.35
2022-08-09T10:07:31.492Z,36.17
2022-08-09T10:08:31.481Z,36.36
2022-08-09T10:09:31.472Z,36.72
2022-08-09T10:10:31.469Z,36.49
2022-08-09T10:11:31.450Z,36.7
2022-08-09T10:12:31.471Z,37.39
2022-08-09T10:13:31.447Z,38.03
2022-08-09T10:14:31.423Z,38.36
2022-08-09T10:15:31.408Z,38.14
2022-08-09T10:16:31.404Z,37.89
2022-08-09T10:17:31.392Z,37.88
2022-08-09T10:18:31.385Z,37.17
2022-08-09T10:19:31.372Z,37.09
2022-08-09T10:20:31.364Z,37.76
2022-08-09T10:21:31.357Z,38.48
2022-08-09T10:22:31.348Z,39.35
2022-08-09T10:23:31.345Z,39.7
2022-08-09T10:24:31.326Z,40.62
2022-08-09T10:25:31.452Z,41.1
2022-08-09T10:26:31.298Z,41.31
2022-08-09T10:27:31.333Z,40.84
2022-08-09T10:28:31.325Z,40.12
2022-08-09T10:29:31.265Z,39.58
2022-08-09T10:32:31.257Z,39.4
2022-08-09T10:33:31.234Z,38.12
2022-08-09T10:34:31.213Z,36.82
2022-08-09T10:35:31.203Z,36.04
2022-08-09T10:36:31.193Z,34.74
2022-08-09T10:37:31.203Z,35.35
2022-08-09T10:38:31.199Z,35.85
2022-08-09T10:39:31.187Z,36.33
2022-08-09T10:40:31.183Z,36.33
2022-08-09T10:41:31.148Z,36.85
2022-08-09T10:42:31.134Z,38.23
2022-08-09T10:43:31.130Z,38.04
2022-08-09T10:44:31.125Z,36.94
2022-08-09T10:45:31.133Z,36.38
2022-08-09T10:46:31.109Z,36.58
2022-08-09T10:47:31.089Z,37.46
2022-08-09T10:48:31.075Z,38.07
2022-08-09T10:49:31.060Z,38.48
2022-08-09T10:50:31.053Z,37.95
2022-08-09T10:51:31.053Z,37.95
2022-08-09T10:52:31.031Z,37.04
2022-08-09T10:53:31.015Z,37.02
2022-08-09T10:54:31.019Z,37.89
2022-08-09T10:55:31.016Z,38.58
2022-08-09T10:56:30.990Z,39.14
2022-08-09T10:57:30.973Z,39.83
2022-08-09T10:58:30.965Z,40.54
2022-08-09T10:59:30.986Z,41.17
2022-08-09T11:00:30.949Z,41.33
2022-08-09T11:01:30.970Z,41.41
2022-08-09T11:02:30.928Z,40.72
2022-08-09T11:03:30.926Z,39.64
2022-08-09T11:04:30.912Z,38.95
2022-08-09T11:05:30.902Z,39.56
2022-08-09T11:06:30.886Z,39.81
2022-08-09T11:07:30.879Z,40.19
2022-08-09T11:08:30.862Z,40.71
2022-08-09T11:09:30.858Z,40.84
2022-08-09T11:10:30.840Z,41.15
2022-08-09T11:11:30.828Z,41.08
2022-08-09T11:12:30.825Z,41.22
2022-08-09T11:13:30.826Z,42.22
2022-08-09T11:14:30.807Z,43.19
2022-08-09T11:15:30.800Z,-40
2022-08-09T11:16:30.780Z,-40
2022-08-09T11:17:30.783Z,-40
2022-08-09T11:18:30.780Z,-40
2022-08-09T11:19:30.767Z,-40
2022-08-09T11:20:30.742Z,-40
2022-08-09T11:21:30.744Z,-40
2022-08-09T11:22:30.733Z,-40
2022-08-09T11:23:30.715Z,-40
2022-08-09T11:24:30.712Z,-40
2022-08-09T11:25:30.691Z,-40
2022-08-09T11:26:30.683Z,-40
2022-08-09T11:27:30.669Z,-40
2022-08-09T11:28:30.668Z,-40
2022-08-09T11:29:30.662Z,-40
2022-08-09T11:30:30.656Z,-40
2022-08-09T11:31:30.651Z,-40
2022-08-09T11:32:30.701Z,-40
2022-08-09T11:33:30.608Z,-40
2022-08-09T11:34:30.595Z,-40
2022-08-09T11:35:30.586Z,-40
2022-08-09T11:36:30.593Z,-40
2022-08-09T11:37:30.572Z,-40
2022-08-09T11:38:30.564Z,-40
2022-08-09T11:39:30.537Z,-40
2022-08-09T11:40:30.535Z,-40
2022-08-09T11:41:30.521Z,-40
2022-08-09T11:42:30.512Z,-40
2022-08-09T11:43:30.509Z,-40
2022-08-09T11:44:30.490Z,-40
2022-08-09T11:45:30.493Z,-40
2022-08-09T11:46:30.492Z,-40
2022-08-09T11:47:30.461Z,-40
2022-08-09T11:48:30.450Z,-40
2022-08-09T11:49:30.451Z,-40
2022-08-09T11:50:30.425Z,-40
2022-08-09T11:51:30.420Z,-40
2022-08-09T11:52:30.408Z,-40
2022-08-09T11:53:30.398Z,-40
2022-08-09T11:54:30.500Z,-40
2022-08-09T11:55:30.379Z,-40
2022-08-09T11:56:30.400Z,-40
2022-08-09T11:57:30.356Z,-40
2022-08-09T11:58:30.348Z,-40
2022-08-09T11:59:30.335Z,-40
2022-08-09T12:00:30.331Z,-40
2022-08-09T12:01:30.321Z,-40
2022-08-09T12:02:30.312Z,-40
2022-08-09T12:03:30.297Z,-40
2022-08-09T12:04:30.285Z,-40
2022-08-09T12:05:30.276Z,-40
2022-08-09T12:06:30.271Z,-40
2022-08-09T12:07:30.283Z,-40
2022-08-09T12:08:30.246Z,-40
2022-08-09T12:09:30.239Z,-40
2022-08-09T12:10:30.225Z,-40
2022-08-09T12:11:30.222Z,-40
2022-08-09T12:12:30.212Z,-40
2022-08-09T12:13:30.197Z,-40
2022-08-09T12:14:30.193Z,-40
2022-08-09T12:15:30.183Z,-40
2022-08-09T12:16:30.171Z,-40
2022-08-09T12:17:30.166Z,-40
2022-08-09T12:18:30.219Z,-40
2022-08-09T12:19:30.142Z,-40
2022-08-09T12:20:30.136Z,-40
2022-08-09T12:21:30.120Z,-40
2022-08-09T12:22:30.109Z,-40
2022-08-09T12:23:30.108Z,-40
2022-08-09T12:24:30.093Z,-40
2022-08-09T12:25:30.083Z,-40
2022-08-09T12:26:30.064Z,-40
2022-08-09T12:27:30.063Z,-40
2022-08-09T12:28:30.055Z,-40
2022-08-09T12:29:30.036Z,-40
2022-08-09T12:30:30.061Z,-40
2022-08-09T12:31:30.025Z,-40
2022-08-09T12:32:30.011Z,-40
2022-08-09T12:33:29.999Z,-40
2022-08-09T12:34:29.985Z,-40
2022-08-09T12:35:29.979Z,-40
2022-08-09T12:36:29.981Z,-40
2022-08-09T12:37:29.951Z,-40
2022-08-09T12:38:29.945Z,-40
2022-08-09T12:39:29.936Z,-40
2022-08-09T12:40:29.932Z,-40
2022-08-09T12:41:29.912Z,-40
2022-08-09T12:42:29.906Z,-40
2022-08-09T12:43:29.910Z,-40
2022-08-09T12:44:29.882Z,-40
2022-08-09T12:45:29.871Z,-40
2022-08-09T12:46:29.854Z,-40
2022-08-09T12:47:29.851Z,-40
2022-08-09T12:48:29.850Z,-40
2022-08-09T12:49:29.837Z,-40
2022-08-09T12:50:29.816Z,-40
2022-08-09T12:51:29.811Z,-40
2022-08-09T12:52:29.806Z,-40
2022-08-09T12:53:29.794Z,-40
2022-08-09T12:54:29.781Z,-40
2022-08-09T12:55:29.780Z,-40
2022-08-09T12:56:29.791Z,-40
2022-08-09T12:57:29.746Z,-40
2022-08-09T12:58:29.741Z,-40
2022-08-09T12:59:29.731Z,-40
2022-08-09T13:00:29.720Z,-40
2022-08-09T13:01:29.713Z,-40
2022-08-09T13:02:29.704Z,-40
2022-08-09T13:03:29.693Z,-40
2022-08-09T13:04:29.679Z,-40
2022-08-09T13:05:29.664Z,-40
2022-08-09T13:06:29.656Z,-40
2022-08-09T13:07:29.659Z,-40
2022-08-09T13:08:29.665Z,-40
2022-08-09T13:09:29.632Z,-40
2022-08-09T13:10:29.617Z,-40
2022-08-09T13:11:29.619Z,-40
2022-08-09T13:12:29.600Z,-40
2022-08-09T13:13:29.587Z,-40
2022-08-09T13:14:29.583Z,-40
2022-08-09T13:15:29.587Z,-40
2022-08-09T13:16:29.556Z,-40
2022-08-09T13:17:29.544Z,-40
2022-08-09T13:18:29.540Z,-40
2022-08-09T13:19:29.540Z,-40
2022-08-09T13:20:29.530Z,-40
2022-08-09T13:21:29.503Z,-40
2022-08-09T13:22:29.497Z,-40